Time;durP1;ratioP1;P1;durP2;ratioP2;P2;SDS_P1;SDS_P2;PMS_P1;PMS_P2;Temp;Humidity;BMP_temperature;BMP_pressure;BME280_temperature;BME280_humidity;BME280_pressure;Samples;Min_cycle;Max_cycle;Signal;HPM_P1;HPM_P2
2021/04/23 00:01:04;;;;;;;2.07;0.50;;;;;;;3.21;64.64;100795.81;5073660;28;20703;-72
2021/04/23 00:03:37;;;;;;;6.00;0.10;;;;;;;3.18;65.21;100798.59;5074981;28;20745;-72
2021/04/23 00:06:09;;;;;;;0.53;0.20;;;;;;;3.17;64.85;100795.06;5080945;28;20246;-72
2021/04/23 00:08:36;;;;;;;11.60;4.70;;;;;;;3.14;65.09;100797.84;5077081;28;20270;-72
2021/04/23 00:11:07;;;;;;;25.20;14.50;;;;;;;3.03;65.26;100787.59;5076688;28;20779;-72
2021/04/23 00:13:36;;;;;;;7.93;2.80;;;;;;;3.07;65.10;100796.31;5078018;28;20294;-71
2021/04/23 00:16:04;;;;;;;2.30;0.90;;;;;;;3.12;64.83;100802.31;5078815;28;20224;-71
2021/04/23 00:18:31;;;;;;;2.10;1.90;;;;;;;3.13;65.58;100809.38;5078667;28;20562;-71
2021/04/23 00:20:59;;;;;;;2.03;0.47;;;;;;;3.13;64.99;100801.41;5080869;28;20514;-72
2021/04/23 00:23:28;;;;;;;0.40;0.27;;;;;;;3.12;65.00;100812.94;5072983;28;20731;-72
2021/04/23 00:25:55;;;;;;;1.57;0.50;;;;;;;3.12;64.95;100804.97;5080213;28;20675;-72
2021/04/23 00:28:23;;;;;;;0.20;0.20;;;;;;;3.01;64.68;100799.19;5074891;28;20197;-71
2021/04/23 00:30:52;;;;;;;0.40;0.40;;;;;;;3.07;64.75;100798.97;5076267;28;20290;-71
2021/04/23 00:33:22;;;;;;;1.40;0.67;;;;;;;2.70;64.72;100736.63;5077579;28;20614;-71
2021/04/23 00:35:50;;;;;;;0.77;0.77;;;;;;;3.03;64.70;100810.59;5077924;28;20588;-71
2021/04/23 00:38:19;;;;;;;0.20;0.20;;;;;;;3.14;64.37;100805.78;5076801;28;20226;-71
2021/04/23 00:40:50;;;;;;;0.33;0.20;;;;;;;3.08;64.38;100811.31;5078065;28;20232;-71
2021/04/23 00:43:19;;;;;;;0.70;0.70;;;;;;;3.08;64.62;100811.31;5077365;28;20196;-71
2021/04/23 00:45:49;;;;;;;1.07;1.07;;;;;;;3.11;64.78;100797.94;5076081;28;20200;-74
2021/04/23 00:48:17;;;;;;;3.30;0.40;;;;;;;3.09;64.40;100818.38;5081510;28;20562;-73
2021/04/23 00:50:47;;;;;;;0.73;0.30;;;;;;;3.07;63.98;100815.75;5079480;28;20314;-73
2021/04/23 00:53:19;;;;;;;7.33;0.50;;;;;;;3.06;63.89;100818.44;5077285;28;20211;-72
2021/04/23 00:55:46;;;;;;;1.27;0.47;;;;;;;2.96;64.01;100825.00;5080156;28;20190;-72
2021/04/23 00:58:17;;;;;;;0.33;0.30;;;;;;;2.94;63.96;100816.22;5076315;28;20220;-73
2021/04/23 01:00:47;;;;;;;0.27;0.20;;;;;;;2.99;64.55;100819.59;5077663;28;20193;-72
2021/04/23 01:03:17;;;;;;;0.20;0.10;;;;;;;2.78;64.36;100784.97;5080696;28;20580;-73
2021/04/23 01:05:45;;;;;;;1.33;0.30;;;;;;;2.73;64.24;100783.38;5079328;28;20568;-72
2021/04/23 01:08:12;;;;;;;0.27;0.10;;;;;;;2.87;64.45;100825.34;5074956;28;20291;-73
2021/04/23 01:10:40;;;;;;;0.73;0.20;;;;;;;2.85;64.58;100813.91;5077800;28;20704;-71
2021/04/23 01:13:08;;;;;;;0.10;0.10;;;;;;;2.88;64.49;100827.94;5078817;28;20196;-73
2021/04/23 01:15:35;;;;;;;0.10;0.10;;;;;;;2.85;64.52;100824.53;5074910;28;20288;-73
2021/04/23 01:18:04;;;;;;;0.60;0.20;;;;;;;2.77;64.49;100823.00;5076691;28;20315;-73
2021/04/23 01:20:32;;;;;;;0.30;0.10;;;;;;;2.78;64.69;100830.03;5081517;28;20223;-71
2021/04/23 01:23:00;;;;;;;0.67;0.20;;;;;;;2.74;64.82;100828.38;5074386;28;20224;-71
2021/04/23 01:25:28;;;;;;;0.00;0.00;;;;;;;2.70;64.64;100831.19;5074797;28;20203;-72
2021/04/23 01:27:55;;;;;;;0.17;0.17;;;;;;;2.68;64.60;100831.25;5074665;28;20674;-72
2021/04/23 01:30:23;;;;;;;0.63;0.20;;;;;;;2.70;64.43;100834.72;5077711;28;20287;-71
2021/04/23 01:32:51;;;;;;;0.20;0.10;;;;;;;2.67;64.25;100828.66;5082084;28;20291;-71
2021/04/23 01:35:21;;;;;;;0.20;0.20;;;;;;;2.25;64.74;100748.84;5075881;28;20283;-71
2021/04/23 01:37:50;;;;;;;0.10;0.10;;;;;;;2.63;64.79;100822.59;5081449;28;20247;-72
2021/04/23 01:40:20;;;;;;;0.27;0.20;;;;;;;2.58;64.32;100832.50;5076226;28;20208;-73
2021/04/23 01:42:48;;;;;;;0.10;0.10;;;;;;;2.61;64.55;100835.03;5078101;28;20231;-72
2021/04/23 01:45:16;;;;;;;0.10;0.10;;;;;;;2.64;64.30;100834.94;5079584;28;20647;-71
2021/04/23 01:47:44;;;;;;;0.10;0.10;;;;;;;2.66;64.43;100835.75;5080885;28;20484;-73
2021/04/23 01:50:17;;;;;;;0.13;0.10;;;;;;;2.62;64.59;100838.56;5078480;28;20275;-73
2021/04/23 01:52:44;;;;;;;0.10;0.10;;;;;;;2.60;64.72;100835.97;5074969;28;20204;-73
2021/04/23 01:55:13;;;;;;;1.40;1.30;;;;;;;2.60;64.74;100835.97;5078712;28;20561;-71
2021/04/23 01:57:41;;;;;;;17.80;7.30;;;;;;;2.59;64.54;100836.88;5076019;28;20215;-72
2021/04/23 02:00:12;;;;;;;4.27;1.57;;;;;;;2.49;64.91;100811.59;5080432;28;20670;-72
2021/04/23 02:02:40;;;;;;;1.37;1.07;;;;;;;2.54;64.41;100830.88;5076262;28;20198;-72
2021/04/23 02:05:09;;;;;;;0.87;0.53;;;;;;;2.53;64.41;100838.88;5077390;28;20207;-74
2021/04/23 02:07:36;;;;;;;1.40;1.03;;;;;;;2.57;65.04;100836.06;5079255;28;20199;-74
2021/04/23 02:10:08;;;;;;;0.10;0.10;;;;;;;2.55;64.29;100851.16;5073676;28;20340;-72
2021/04/23 02:12:35;;;;;;;0.10;0.10;;;;;;;2.59;64.51;100841.31;5079685;28;20672;-74
2021/04/23 02:15:05;;;;;;;0.00;0.00;;;;;;;2.52;64.02;100832.72;5077678;28;20200;-74
2021/04/23 02:17:32;;;;;;;0.13;0.13;;;;;;;2.62;64.57;100843.84;5074535;28;20228;-74
2021/04/23 02:20:00;;;;;;;0.30;0.30;;;;;;;2.64;64.67;100842.03;5075806;28;20586;-74
2021/04/23 02:22:27;;;;;;;0.10;0.10;;;;;;;2.63;63.94;100837.63;5079125;28;20550;-74
2021/04/23 02:24:54;;;;;;;7.43;0.37;;;;;;;2.59;64.20;100844.81;5077541;28;20299;-74
2021/04/23 02:27:21;;;;;;;2.10;1.07;;;;;;;2.53;64.18;100845.03;5074192;28;20263;-74
2021/04/23 02:29:48;;;;;;;0.40;0.00;;;;;;;2.54;64.46;100852.06;5077128;28;20202;-73
2021/04/23 02:32:17;;;;;;;0.93;0.33;;;;;;;2.47;63.83;100842.59;5079887;28;20207;-74
2021/04/23 02:34:44;;;;;;;0.20;0.20;;;;;;;2.58;63.71;100847.53;5077231;28;20195;-74
2021/04/23 02:37:12;;;;;;;0.13;0.10;;;;;;;2.56;63.82;100844.94;5075396;28;20698;-72
2021/04/23 02:39:39;;;;;;;0.93;0.93;;;;;;;2.54;64.22;100845.91;5074898;28;20214;-74
2021/04/23 02:42:06;;;;;;;0.00;0.00;;;;;;;2.52;64.18;100847.75;5087416;28;20204;-74
2021/04/23 02:44:34;;;;;;;5.57;0.30;;;;;;;2.48;63.64;100852.28;5077624;28;20217;-74
2021/04/23 02:47:01;;;;;;;0.20;0.10;;;;;;;2.43;64.29;100854.19;5080790;28;20206;-73
2021/04/23 02:49:29;;;;;;;0.00;0.00;;;;;;;2.41;63.89;100856.03;5077513;28;20285;-74
2021/04/23 02:51:57;;;;;;;0.13;0.13;;;;;;;2.16;64.12;100817.09;5074471;28;20207;-74
2021/04/23 02:54:26;;;;;;;0.10;0.10;;;;;;;2.33;63.75;100861.56;5079022;28;20284;-72
2021/04/23 02:56:54;;;;;;;0.13;0.10;;;;;;;2.31;64.02;100857.25;5074382;28;20356;-73
2021/04/23 02:59:21;;;;;;;0.00;0.00;;;;;;;2.05;64.11;100818.34;5076270;28;20193;-73
2021/04/23 03:01:52;;;;;;;2.13;0.10;;;;;;;2.32;63.59;100858.97;5074856;28;20290;-73
2021/04/23 03:04:19;;;;;;;0.30;0.20;;;;;;;2.35;63.71;100854.44;5075183;28;20196;-71
2021/04/23 03:06:47;;;;;;;0.03;0.03;;;;;;;2.37;63.72;100854.38;5074336;28;22093;-73
2021/04/23 03:09:15;;;;;;;0.10;0.10;;;;;;;2.34;63.78;100854.50;5075251;28;20279;-73
2021/04/23 03:11:43;;;;;;;4.60;0.27;;;;;;;2.38;64.33;100866.72;5073293;28;20239;-72
2021/04/23 03:14:10;;;;;;;0.33;0.10;;;;;;;2.33;64.02;100864.22;5075511;28;20726;-73
2021/04/23 03:16:40;;;;;;;4.53;0.27;;;;;;;2.29;64.30;100864.38;5074788;28;20688;-72
2021/04/23 03:19:11;;;;;;;0.10;0.07;;;;;;;2.27;63.33;100876.81;5070102;28;20212;-72
2021/04/23 03:21:39;;;;;;;0.13;0.13;;;;;;;2.27;64.03;100867.06;5069613;28;20219;-72
2021/04/23 03:24:09;;;;;;;0.20;0.13;;;;;;;2.02;63.94;100832.53;5070927;28;20207;-72
2021/04/23 03:26:36;;;;;;;0.07;0.07;;;;;;;1.21;63.81;100702.69;5075479;28;20616;-77
2021/04/23 03:29:04;;;;;;;0.20;0.20;;;;;;;2.29;63.96;100872.31;5077570;28;20201;-77
2021/04/23 03:31:32;;;;;;;1.07;0.40;;;;;;;2.24;64.28;100859.22;5077989;28;20633;-73
2021/04/23 03:34:00;;;;;;;0.10;0.10;;;;;;;2.30;63.88;100871.41;5076886;28;20689;-72
2021/04/23 03:36:27;;;;;;;1.70;0.20;;;;;;;2.33;64.30;100868.66;5075566;28;20209;-72
2021/04/23 03:38:55;;;;;;;0.07;0.07;;;;;;;2.27;63.44;100864.44;5072845;28;20588;-73
2021/04/23 03:41:29;;;;;;;0.73;0.10;;;;;;;2.34;63.79;100873.03;5078445;28;20224;-72
2021/04/23 03:43:57;;;;;;;0.10;0.10;;;;;;;2.34;63.78;100871.25;5082621;28;20665;-76
2021/04/23 03:46:25;;;;;;;291.47;117.70;;;;;;;2.37;63.98;100887.06;5081196;28;20234;-72
2021/04/23 03:48:53;;;;;;;10.83;3.87;;;;;;;2.04;64.45;100820.13;5081846;28;20201;-72
2021/04/23 03:51:21;;;;;;;13.97;11.63;;;;;;;2.39;63.70;100877.28;5077254;28;20662;-72
2021/04/23 03:53:49;;;;;;;1.73;0.80;;;;;;;2.52;63.92;100877.75;5083158;28;20640;-77
2021/04/23 03:56:17;;;;;;;0.67;0.67;;;;;;;2.52;63.05;100887.50;5078504;28;20263;-76
2021/04/23 03:58:47;;;;;;;0.50;0.27;;;;;;;2.60;63.17;100869.56;5078343;28;20255;-77
2021/04/23 04:01:18;;;;;;;0.33;0.33;;;;;;;2.76;62.55;100884.03;5074860;28;20193;-73
2021/04/23 04:03:47;;;;;;;0.10;0.10;;;;;;;2.88;62.95;100880.97;5076267;28;20497;-72
2021/04/23 04:06:14;;;;;;;0.40;0.40;;;;;;;2.92;62.55;100884.38;5072834;28;20257;-71
2021/04/23 04:08:42;;;;;;;0.63;0.63;;;;;;;2.71;62.24;100857.66;5074332;28;20196;-72
2021/04/23 04:11:10;;;;;;;1.70;0.53;;;;;;;2.87;61.29;100894.28;5080853;28;20233;-72
2021/04/23 04:13:38;;;;;;;1.07;0.47;;;;;;;2.80;61.45;100901.59;5086833;28;20793;-72
2021/04/23 04:16:06;;;;;;;0.50;0.50;;;;;;;2.87;61.29;100891.63;5082046;28;20204;-77
2021/04/23 04:18:34;;;;;;;0.13;0.13;;;;;;;2.78;61.80;100882.22;5082666;28;20631;-77
2021/04/23 04:21:05;;;;;;;0.50;0.50;;;;;;;2.84;61.86;100899.69;5082935;28;20211;-73
2021/04/23 04:23:33;;;;;;;0.50;0.50;;;;;;;2.93;62.14;100896.72;5079304;28;20239;-77
2021/04/23 04:26:02;;;;;;;0.97;0.10;;;;;;;2.97;61.24;100901.00;5076143;28;20196;-77
2021/04/23 04:28:33;;;;;;;0.00;0.00;;;;;;;3.05;61.21;100902.47;5075240;28;20193;-73
2021/04/23 04:31:00;;;;;;;0.03;0.03;;;;;;;3.21;61.18;100904.59;5075853;28;20250;-73
2021/04/23 04:33:47;;;;;;;0.60;0.20;;;;;;;3.32;60.90;100903.28;5084063;28;20205;-78
2021/04/23 04:36:15;;;;;;;0.87;0.17;;;;;;;3.44;60.21;100907.31;5076725;28;20199;-75
2021/04/23 04:38:42;;;;;;;0.10;0.10;;;;;;;3.38;59.70;100857.97;5077693;28;20222;-74
2021/04/23 04:41:10;;;;;;;0.20;0.20;;;;;;;3.54;59.98;100860.06;5073300;28;21177;-72
2021/04/23 04:43:39;;;;;;;0.00;0.00;;;;;;;3.91;58.71;100899.38;5076208;28;20215;-72
2021/04/23 04:46:07;;;;;;;1.80;0.20;;;;;;;4.05;58.79;100907.69;5074703;28;20205;-72
2021/04/23 04:48:35;;;;;;;2.00;0.13;;;;;;;4.26;58.77;100905.97;5074865;28;20551;-72
2021/04/23 04:51:07;;;;;;;0.30;0.30;;;;;;;4.35;58.02;100903.84;5077070;28;20207;-73
2021/04/23 04:53:34;;;;;;;0.10;0.10;;;;;;;4.52;58.48;100903.16;5078392;28;20292;-74
2021/04/23 04:56:02;;;;;;;0.20;0.20;;;;;;;4.58;57.49;100902.03;5073593;28;20232;-74
2021/04/23 04:58:32;;;;;;;0.00;0.00;;;;;;;4.82;57.24;100909.03;5078575;28;20220;-73
2021/04/23 05:01:01;;;;;;;0.10;0.10;;;;;;;4.71;56.58;100881.16;5082060;28;20212;-76
2021/04/23 05:03:28;;;;;;;0.00;0.00;;;;;;;4.91;55.92;100889.19;5080120;28;20197;-75
2021/04/23 05:05:56;;;;;;;0.00;0.00;;;;;;;5.15;55.38;100919.19;5076803;28;20300;-70
2021/04/23 05:08:24;;;;;;;0.10;0.00;;;;;;;5.27;55.81;100913.34;5074433;28;20193;-70
2021/04/23 05:10:51;;;;;;;0.30;0.10;;;;;;;5.48;55.44;100911.53;5073942;28;20769;-71
2021/04/23 05:13:22;;;;;;;0.67;0.30;;;;;;;5.63;55.44;100920.66;5073576;28;20264;-71
2021/04/23 05:15:50;;;;;;;0.53;0.27;;;;;;;5.73;54.40;100922.81;5077615;28;20485;-70
2021/04/23 05:18:17;;;;;;;0.20;0.00;;;;;;;5.83;54.33;100913.50;5073561;28;20615;-70
2021/04/23 05:20:44;;;;;;;0.03;0.03;;;;;;;5.75;53.85;100882.78;5070784;28;20701;-70
2021/04/23 05:23:12;;;;;;;1.90;0.13;;;;;;;6.05;53.88;100924.06;5075837;28;20594;-70
2021/04/23 05:25:40;;;;;;;0.20;0.20;;;;;;;6.15;53.01;100913.84;5079073;28;20533;-70
2021/04/23 05:28:07;;;;;;;1.80;0.17;;;;;;;6.03;51.67;100898.41;5077514;28;20217;-70
2021/04/23 05:30:37;;;;;;;0.20;0.10;;;;;;;6.23;52.43;100919.69;5069436;28;20307;-70
2021/04/23 05:33:06;;;;;;;0.10;0.10;;;;;;;6.23;51.80;100909.88;5074172;28;20567;-70
2021/04/23 05:35:34;;;;;;;0.07;0.07;;;;;;;6.50;52.46;100915.72;5075958;28;20195;-71
2021/04/23 05:38:01;;;;;;;0.20;0.20;;;;;;;6.69;51.93;100914.78;5074133;28;20221;-70
2021/04/23 05:40:32;;;;;;;0.00;0.00;;;;;;;6.88;51.17;100914.78;5076572;28;20190;-71
2021/04/23 05:43:01;;;;;;;0.00;0.00;;;;;;;6.95;50.96;100918.84;5078363;28;20203;-71
2021/04/23 05:45:29;;;;;;;0.00;0.00;;;;;;;7.14;51.02;100936.56;5075212;28;20203;-71
2021/04/23 05:47:56;;;;;;;0.13;0.13;;;;;;;6.95;49.56;100932.19;5077598;28;20202;-71
2021/04/23 05:50:25;;;;;;;0.43;0.20;;;;;;;7.12;50.30;100937.56;5073423;28;20226;-71
2021/04/23 05:52:53;;;;;;;0.00;0.00;;;;;;;7.34;49.86;100934.66;5074829;28;20608;-71
2021/04/23 05:55:25;;;;;;;0.13;0.13;;;;;;;7.37;49.94;100935.38;5072485;28;20734;-71
2021/04/23 05:57:53;;;;;;;1.90;0.10;;;;;;;7.40;49.62;100937.03;5072773;28;20303;-70
2021/04/23 06:00:25;;;;;;;0.13;0.13;;;;;;;7.48;49.65;100932.16;5071644;28;20665;-77
2021/04/23 06:02:53;;;;;;;2.30;0.30;;;;;;;7.38;49.42;100904.19;5079768;28;20304;-77
2021/04/23 06:05:26;;;;;;;0.00;0.00;;;;;;;7.51;48.65;100929.31;5082860;28;20586;-77
2021/04/23 06:07:54;;;;;;;0.10;0.10;;;;;;;7.83;48.82;100948.13;5081432;28;20249;-77
2021/04/23 06:10:22;;;;;;;0.53;0.20;;;;;;;7.88;48.56;100946.94;5080860;28;20253;-77
2021/04/23 06:12:49;;;;;;;0.37;0.17;;;;;;;7.90;48.48;100936.16;5078993;28;20223;-76
2021/04/23 06:15:17;;;;;;;0.97;0.17;;;;;;;7.56;47.87;100902.34;5073135;28;20219;-77
2021/04/23 06:17:45;;;;;;;0.20;0.17;;;;;;;8.12;47.89;100946.59;5076726;28;20210;-73
2021/04/23 06:20:16;;;;;;;0.10;0.10;;;;;;;8.16;47.78;100940.13;5074637;28;20192;-77
2021/04/23 06:22:44;;;;;;;0.20;0.20;;;;;;;8.14;48.22;100948.22;5090744;28;20208;-73
2021/04/23 06:25:14;;;;;;;0.20;0.20;;;;;;;8.11;47.23;100956.41;5073013;28;20204;-72
2021/04/23 06:27:42;;;;;;;0.20;0.10;;;;;;;8.29;47.85;100963.44;5079681;28;20198;-73
2021/04/23 06:30:12;;;;;;;0.13;0.13;;;;;;;8.34;47.83;100931.97;5075024;28;20281;-74
2021/04/23 06:32:42;;;;;;;0.17;0.17;;;;;;;8.53;46.61;100958.56;5077955;28;20231;-74
2021/04/23 06:35:13;;;;;;;0.13;0.10;;;;;;;8.48;46.27;100968.66;5077468;28;20211;-74
2021/04/23 06:37:41;;;;;;;0.20;0.20;;;;;;;8.49;45.58;100980.22;5075074;28;20686;-76
2021/04/23 06:40:09;;;;;;;1.40;0.17;;;;;;;8.55;46.99;100977.22;5076649;28;20202;-77
2021/04/23 06:42:37;;;;;;;0.10;0.10;;;;;;;8.61;45.97;100974.22;5074822;28;20194;-77
2021/04/23 06:45:06;;;;;;;4.00;0.20;;;;;;;8.65;47.43;100975.78;5079743;28;20200;-73
2021/04/23 06:47:34;;;;;;;0.40;0.20;;;;;;;8.82;47.24;100967.63;5072332;28;20199;-77
2021/04/23 06:50:04;;;;;;;0.03;0.03;;;;;;;9.06;46.99;100980.56;5071260;28;20204;-78
2021/04/23 06:52:32;;;;;;;0.47;0.47;;;;;;;9.31;45.96;100978.19;5074378;28;20221;-77
2021/04/23 06:55:00;;;;;;;0.40;0.40;;;;;;;9.13;45.25;100971.22;5076619;28;20287;-76
2021/04/23 06:57:27;;;;;;;0.40;0.40;;;;;;;9.00;45.40;100985.34;5076853;28;20227;-74
2021/04/23 06:59:55;;;;;;;0.97;0.40;;;;;;;8.55;44.30;100959.34;5081164;28;20599;-75
2021/04/23 07:02:22;;;;;;;0.20;0.20;;;;;;;8.90;45.29;100981.47;5078284;28;20244;-76
2021/04/23 07:04:49;;;;;;;0.20;0.20;;;;;;;8.93;44.61;100985.78;5079536;28;20302;-76
2021/04/23 07:07:16;;;;;;;0.73;0.37;;;;;;;8.97;45.02;100985.53;5078414;28;20209;-74
2021/04/23 07:09:44;;;;;;;0.20;0.20;;;;;;;8.82;45.74;101001.59;5074065;28;20199;-74
2021/04/23 07:12:12;;;;;;;0.00;0.00;;;;;;;8.36;46.17;100942.59;5077734;28;20319;-74
2021/04/23 07:14:39;;;;;;;0.10;0.10;;;;;;;8.29;46.88;100982.19;5071732;28;20270;-73
2021/04/23 07:17:10;;;;;;;0.30;0.23;;;;;;;8.71;45.54;100987.00;5071753;28;20228;-73
2021/04/23 07:19:38;;;;;;;0.30;0.10;;;;;;;9.00;46.29;100993.38;5088901;28;20208;-74
2021/04/23 07:22:05;;;;;;;0.37;0.20;;;;;;;9.17;44.30;101000.44;5072523;28;20222;-74
2021/04/23 07:24:33;;;;;;;0.73;0.30;;;;;;;9.40;45.59;101000.91;5085413;28;20209;-74
2021/04/23 07:27:01;;;;;;;0.10;0.10;;;;;;;9.29;45.43;100982.78;5079470;28;20253;-74
2021/04/23 07:29:46;;;;;;;0.13;0.10;;;;;;;9.19;45.43;100985.16;5091868;28;20588;-74
2021/04/23 07:32:13;;;;;;;0.30;0.20;;;;;;;9.06;45.08;101010.03;5088708;28;20297;-74
2021/04/23 07:34:41;;;;;;;0.03;0.03;;;;;;;9.19;45.39;100998.56;5090358;28;20237;-73
2021/04/23 07:37:09;;;;;;;4.87;0.13;;;;;;;9.14;44.30;100983.66;5079836;28;20202;-73
2021/04/23 07:39:36;;;;;;;0.00;0.00;;;;;;;9.53;45.18;101004.63;5072146;28;20547;-74
2021/04/23 07:42:05;;;;;;;0.43;0.10;;;;;;;9.80;44.13;101005.66;5080627;28;20292;-74
2021/04/23 07:44:32;;;;;;;0.73;0.30;;;;;;;9.88;44.70;101021.28;5090773;28;20228;-74
2021/04/23 07:47:00;;;;;;;0.30;0.23;;;;;;;9.84;44.73;101019.75;5090996;28;20296;-74
2021/04/23 07:49:27;;;;;;;0.13;0.10;;;;;;;9.72;43.88;101015.94;5090713;28;20609;-74
2021/04/23 07:51:55;;;;;;;0.27;0.27;;;;;;;9.54;44.22;101028.66;5084778;28;20255;-74
2021/04/23 07:54:22;;;;;;;0.20;0.10;;;;;;;9.43;45.07;101028.41;5071509;28;20680;-75
2021/04/23 07:56:49;;;;;;;0.07;0.07;;;;;;;9.50;45.20;101039.66;5090129;28;20291;-75
2021/04/23 07:59:18;;;;;;;0.20;0.10;;;;;;;9.47;45.10;101026.41;5091317;28;20210;-75
2021/04/23 08:01:45;;;;;;;0.67;0.00;;;;;;;9.92;44.89;101030.84;5074295;28;20723;-75
2021/04/23 08:04:12;;;;;;;0.10;0.10;;;;;;;9.98;43.86;101032.31;5072887;28;20195;-75
2021/04/23 08:06:39;;;;;;;0.20;0.20;;;;;;;9.80;43.69;101037.84;5074430;28;20431;-74
2021/04/23 08:09:07;;;;;;;0.87;0.40;;;;;;;9.70;43.17;101028.59;5073987;28;20208;-73
2021/04/23 08:11:34;;;;;;;0.10;0.10;;;;;;;9.23;44.10;101012.63;5078160;28;20235;-74
2021/04/23 08:14:02;;;;;;;0.20;0.20;;;;;;;9.48;44.23;101026.31;5082223;28;20200;-73
2021/04/23 08:16:30;;;;;;;0.20;0.20;;;;;;;9.30;43.72;101043.47;5074574;28;20204;-74
2021/04/23 08:18:58;;;;;;;0.00;0.00;;;;;;;9.09;44.50;101029.47;5078387;28;20302;-73
2021/04/23 08:21:25;;;;;;;0.00;0.00;;;;;;;8.81;44.25;101045.38;5071737;28;20200;-74
2021/04/23 08:23:52;;;;;;;0.10;0.10;;;;;;;8.96;44.60;101045.41;5078350;28;20215;-74
2021/04/23 08:26:22;;;;;;;0.93;0.20;;;;;;;9.11;45.68;101051.69;5081777;28;20384;-74
2021/04/23 08:28:49;;;;;;;0.40;0.30;;;;;;;9.39;44.93;101052.78;5094158;28;20207;-74
2021/04/23 08:31:16;;;;;;;2.57;0.40;;;;;;;9.39;44.56;101047.44;5081433;28;20203;-74
2021/04/23 08:33:44;;;;;;;0.57;0.20;;;;;;;9.43;44.32;101060.56;5084038;28;20636;-74
2021/04/23 08:36:12;;;;;;;0.00;0.00;;;;;;;9.58;44.99;101067.72;5078063;28;20565;-74
2021/04/23 08:38:41;;;;;;;1.10;0.23;;;;;;;9.70;44.51;101073.31;5076732;28;20759;-74
2021/04/23 08:41:08;;;;;;;0.10;0.10;;;;;;;9.77;44.40;101072.00;5081687;28;20230;-74
2021/04/23 08:43:36;;;;;;;1.33;0.40;;;;;;;9.57;43.87;101073.19;5091029;28;20672;-74
2021/04/23 08:46:04;;;;;;;0.30;0.20;;;;;;;9.11;44.79;101080.28;5087018;28;20279;-74
2021/04/23 08:48:33;;;;;;;0.00;0.00;;;;;;;9.46;45.36;101076.47;5078672;28;20662;-74
2021/04/23 08:51:01;;;;;;;0.17;0.17;;;;;;;9.55;44.85;101081.31;5078023;28;20656;-74
2021/04/23 08:53:29;;;;;;;1.20;0.40;;;;;;;9.69;44.76;101077.81;5088793;28;20259;-75
2021/04/23 08:55:57;;;;;;;0.10;0.10;;;;;;;9.62;44.26;101085.38;5075828;28;20253;-75
2021/04/23 08:58:24;;;;;;;2.27;0.20;;;;;;;9.24;43.57;101059.91;5088240;28;20628;-75
2021/04/23 09:00:52;;;;;;;2.07;0.27;;;;;;;9.28;45.39;101066.81;5083981;28;20577;-75
2021/04/23 09:03:22;;;;;;;2.47;0.30;;;;;;;9.41;44.22;101100.00;5076870;28;20394;-75
2021/04/23 09:06:13;;;;;;;0.13;0.13;;;;;;;9.57;44.34;101100.84;5071905;28;20683;-75
2021/04/23 09:08:58;;;;;;;1.53;0.20;;;;;;;9.93;43.37;101107.69;5076766;28;20195;-75
2021/04/23 09:11:27;;;;;;;0.40;0.10;;;;;;;9.69;44.45;101110.00;5075123;28;20281;-75
2021/04/23 09:13:57;;;;;;;0.20;0.20;;;;;;;9.70;44.83;101092.09;5075188;28;20254;-75
2021/04/23 09:16:27;;;;;;;0.20;0.20;;;;;;;10.11;44.49;101111.13;5082311;28;20573;-75
2021/04/23 09:19:14;;;;;;;0.20;0.20;;;;;;;10.15;43.09;101113.53;5080250;28;20224;-74
2021/04/23 09:21:51;;;;;;;0.00;0.00;;;;;;;9.94;44.10;101110.28;5074848;28;20639;-74
2021/04/23 09:24:25;;;;;;;0.20;0.20;;;;;;;10.07;43.88;101112.22;5077004;28;20222;-74
2021/04/23 09:26:53;;;;;;;0.30;0.20;;;;;;;10.32;43.75;101109.84;5078967;28;20210;-74
2021/04/23 09:29:26;;;;;;;1.03;0.20;;;;;;;10.64;43.54;101104.31;5083739;28;20188;-74
2021/04/23 09:31:54;;;;;;;0.40;0.30;;;;;;;10.80;42.25;101114.00;5073937;28;20758;-74
2021/04/23 09:34:24;;;;;;;1.90;0.40;;;;;;;10.81;40.50;101120.25;5075198;28;20201;-74
2021/04/23 09:36:52;;;;;;;0.50;0.30;;;;;;;10.53;41.35;101132.69;5080636;28;20204;-74
2021/04/23 09:39:22;;;;;;;0.50;0.50;;;;;;;10.20;42.46;101123.97;5078933;28;20220;-73
2021/04/23 09:42:00;;;;;;;0.10;0.10;;;;;;;10.63;42.42;101114.19;5075502;28;20208;-74
2021/04/23 09:44:32;;;;;;;1.03;0.33;;;;;;;10.87;42.59;101119.84;5072561;28;20226;-74
2021/04/23 09:47:02;;;;;;;0.20;0.20;;;;;;;10.97;41.53;101101.31;5074372;28;20711;-74
2021/04/23 09:49:29;;;;;;;1.10;0.30;;;;;;;11.47;40.24;101101.59;5078711;28;20201;-75
2021/04/23 09:51:59;;;;;;;0.67;0.40;;;;;;;11.63;40.63;101097.88;5076230;28;20208;-74
2021/04/23 09:54:27;;;;;;;0.40;0.40;;;;;;;11.66;40.88;101108.47;5074213;28;20547;-75
2021/04/23 09:56:55;;;;;;;0.30;0.30;;;;;;;11.70;40.45;101123.44;5077214;28;20723;-74
2021/04/23 09:59:25;;;;;;;7.73;0.57;;;;;;;11.42;39.74;101130.63;5079881;28;20648;-74
2021/04/23 10:02:03;;;;;;;5.60;0.40;;;;;;;11.07;40.06;101123.97;5081248;28;20203;-75
2021/04/23 10:04:33;;;;;;;0.20;0.20;;;;;;;10.82;40.24;101130.91;5070873;28;20252;-75
2021/04/23 10:07:12;;;;;;;2.83;0.40;;;;;;;10.55;41.07;101121.88;5072523;28;20279;-74
2021/04/23 10:09:47;;;;;;;0.53;0.30;;;;;;;11.06;42.27;101116.88;5076232;28;20727;-74
2021/04/23 10:12:28;;;;;;;2.10;0.20;;;;;;;11.54;40.67;101117.34;5074261;28;20224;-74
2021/04/23 10:15:01;;;;;;;0.50;0.17;;;;;;;11.75;40.15;101100.63;5072294;28;20208;-74
2021/04/23 10:17:28;;;;;;;0.30;0.30;;;;;;;11.42;39.99;101116.31;5090457;28;20287;-74
2021/04/23 10:19:56;;;;;;;5.53;0.40;;;;;;;11.49;39.76;101133.78;5071473;28;20221;-74
2021/04/23 10:22:24;;;;;;;0.53;0.33;;;;;;;11.25;40.48;101112.03;5070964;28;20204;-73
2021/04/23 10:24:52;;;;;;;0.20;0.20;;;;;;;11.47;40.74;101123.13;5069249;28;20300;-74
2021/04/23 10:27:21;;;;;;;1.13;0.40;;;;;;;11.67;39.28;101139.78;5074273;28;20313;-74
2021/04/23 10:29:51;;;;;;;0.50;0.40;;;;;;;11.76;37.96;101137.34;5074481;28;20620;-75
2021/04/23 10:32:18;;;;;;;0.47;0.20;;;;;;;12.10;37.65;101133.28;5070484;28;20209;-75
2021/04/23 10:34:46;;;;;;;0.10;0.10;;;;;;;12.42;38.55;101138.28;5072027;28;20575;-72
2021/04/23 10:37:14;;;;;;;0.33;0.30;;;;;;;12.66;36.74;101131.19;5071447;28;20247;-76
2021/04/23 10:39:44;;;;;;;0.47;0.47;;;;;;;12.76;37.39;101136.78;5075042;28;20213;-75
2021/04/23 10:42:45;;;;;;;0.93;0.30;;;;;;;12.42;35.40;101131.06;5077195;28;20194;-75
2021/04/23 10:45:38;;;;;;;2.03;0.53;;;;;;;12.23;36.36;101143.22;5072374;28;20195;-75
2021/04/23 10:48:27;;;;;;;0.40;0.40;;;;;;;11.68;35.12;101161.22;5073135;28;20279;-74
2021/04/23 10:50:56;;;;;;;0.40;0.40;;;;;;;11.34;38.17;101154.47;5075531;28;20296;-74
2021/04/23 10:53:43;;;;;;;0.10;0.10;;;;;;;11.54;38.65;101166.63;5076044;28;20201;-75
2021/04/23 10:56:29;;;;;;;0.20;0.20;;;;;;;11.23;36.95;101159.66;5074922;28;20284;-73
2021/04/23 10:58:59;;;;;;;0.90;0.20;;;;;;;11.40;37.41;101161.28;5077182;28;20227;-75
2021/04/23 11:01:30;;;;;;;0.17;0.17;;;;;;;11.62;38.85;101158.91;5073404;28;20197;-75
2021/04/23 11:04:08;;;;;;;0.40;0.40;;;;;;;11.74;38.28;101162.63;5074993;28;20672;-75
2021/04/23 11:06:39;;;;;;;0.33;0.30;;;;;;;11.86;38.57;101137.63;5076135;28;20283;-75
2021/04/23 11:09:10;;;;;;;1.07;0.37;;;;;;;12.30;39.68;101156.16;5080620;28;20297;-75
2021/04/23 11:11:39;;;;;;;0.13;0.13;;;;;;;12.34;40.48;101160.38;5075789;28;20327;-75
2021/04/23 11:14:26;;;;;;;0.60;0.40;;;;;;;12.06;38.39;101165.91;5075275;28;20200;-76
2021/04/23 11:16:55;;;;;;;0.30;0.30;;;;;;;11.48;38.92;101172.41;5078819;28;20207;-75
2021/04/23 11:19:38;;;;;;;0.30;0.30;;;;;;;11.41;38.10;101166.56;5077733;28;20217;-75
2021/04/23 11:22:08;;;;;;;0.40;0.40;;;;;;;11.35;39.34;101121.25;5079431;28;20285;-75
2021/04/23 11:24:36;;;;;;;0.27;0.20;;;;;;;11.64;37.84;101162.38;5079467;28;20276;-75
2021/04/23 11:27:11;;;;;;;0.80;0.53;;;;;;;11.55;37.51;101140.56;5078443;28;20193;-75
2021/04/23 11:29:42;;;;;;;0.37;0.37;;;;;;;11.88;39.30;101170.66;5079146;28;20224;-75
2021/04/23 11:32:15;;;;;;;0.30;0.30;;;;;;;11.39;37.79;101178.38;5084559;28;20580;-75
2021/04/23 11:34:44;;;;;;;0.37;0.20;;;;;;;11.40;37.73;101156.75;5078681;28;20196;-73
2021/04/23 11:37:14;;;;;;;1.13;0.13;;;;;;;11.60;38.59;101171.59;5070905;28;20285;-74
2021/04/23 11:39:44;;;;;;;0.83;0.30;;;;;;;11.94;39.91;101170.28;5082857;28;20228;-73
2021/04/23 11:42:16;;;;;;;0.10;0.10;;;;;;;12.18;39.60;101173.16;5085867;28;20859;-73